CW1707 Weather Reports


Display with metric or nautical units.
time (UTC)temp
F
wind
direction
speed
MPH
gust
MPH
rain 1hr
in
rain 24hr
in
rain mn
in
humidity
%
barometer
mb
20180618225702 91 163 6.0 18.0 0.00 0.00 0.00 58 1010.7
20180618225203 91 177 7.0 16.0 0.00 0.00 0.00 58 1010.6
20180618224703 91 182 6.0 20.0 0.00 0.00 0.00 58 1010.4
20180618224203 91 150 7.0 20.0 0.00 0.00 0.00 58 1010.3
20180618223703 92 165 6.0 17.0 0.00 0.00 0.00 58 1010.0
20180618223202 92 141 5.0 17.0 0.00 0.00 0.00 58 1010.0
20180618222703 92 166 6.0 16.0 0.00 0.00 0.00 58 1010.1
20180618222203 92 178 6.0 16.0 0.00 0.00 0.00 57 1010.2
20180618221702 92 166 6.0 17.0 0.00 0.00 0.00 58 1010.2
20180618221203 92 169 7.0 17.0 0.00 0.00 0.00 56 1010.1
20180618220703 93 176 5.0 16.0 0.00 0.00 0.00 57 1010.1
20180618220203 93 181 6.0 12.0 0.00 0.00 0.00 58 1010.4
20180618215703 92 174 4.0 16.0 0.00 0.00 0.00 58 1010.5
20180618215203 92 170 3.0 16.0 0.00 0.00 0.00 59 1010.7
20180618214704 92 173 6.0 16.0 0.00 0.00 0.00 59 1010.7
20180618214203 92 163 6.0 16.0 0.00 0.00 0.00 57 1010.8
20180618213702 92 168 3.0 16.0 0.00 0.00 0.00 60 1010.8
20180618213202 92 163 4.0 15.0 0.00 0.00 0.00 59 1011.0
20180618212703 92 172 6.0 16.0 0.00 0.00 0.00 57 1011.0
20180618212203 92 191 9.0 16.0 0.00 0.00 0.00 56 1011.1
20180618211703 92 183 7.0 15.0 0.00 0.00 0.00 57 1011.2
20180618211203 93 180 4.0 14.0 0.00 0.00 0.00 58 1011.3
20180618210703 92 186 5.0 14.0 0.00 0.00 0.00 57 1011.5
20180618210203 92 187 6.0 14.0 0.00 0.00 0.00 57 1011.6
20180618205703 92 182 3.0 12.0 0.00 0.00 0.00 59 1011.7
20180618205203 92 182 6.0 13.0 0.00 0.00 0.00 56 1011.8
20180618204703 92 166 6.0 15.0 0.00 0.00 0.00 56 1011.9
20180618204202 93 182 5.0 15.0 0.00 0.00 0.00 57 1011.8
20180618203703 92 165 7.0 15.0 0.00 0.00 0.00 55 1012.0
20180618203203 92 192 7.0 17.0 0.00 0.00 0.00 57 1012.0
20180618202703 92 182 7.0 17.0 0.00 0.00 0.00 56 1012.0
20180618202203 93 180 5.0 17.0 0.00 0.00 0.00 58 1012.1
20180618201702 92 162 4.0 12.0 0.00 0.00 0.00 59 1012.2
20180618201204 92 181 2.0 12.0 0.00 0.00 0.00 60 1012.3
20180618200703 91 170 2.0 12.0 0.00 0.00 0.00 60 1012.4
20180618200203 92 177 5.0 12.0 0.00 0.00 0.00 57 1012.4
20180618195703 92 173 3.0 12.0 0.00 0.00 0.00 60 1012.5
20180618195203 92 183 3.0 15.0 0.00 0.00 0.00 59 1012.5
20180618194703 91 183 5.0 15.0 0.00 0.00 0.00 60 1012.6
20180618194203 91 171 5.0 15.0 0.00 0.00 0.00 59 1012.6
20180618193703 91 171 4.0 12.0 0.00 0.00 0.00 59 1012.6
20180618193204 91 171 5.0 14.0 0.00 0.00 0.00 58 1012.7
20180618192702 92 180 5.0 14.0 0.00 0.00 0.00 59 1012.7
20180618192203 92 162 3.0 13.0 0.00 0.00 0.00 60 1012.8
20180618191704 92 162 2.0 12.0 0.00 0.00 0.00 60 1012.8
20180618191203 91 174 5.0 13.0 0.00 0.00 0.00 63 1012.9
20180618190704 91 185 3.0 13.0 0.00 0.00 0.00 60 1012.9
20180618190203 91 171 1.0 12.0 0.00 0.00 0.00 63 1013.0
20180618185703 91 172 3.0 13.0 0.00 0.00 0.00 61 1013.1
20180618185203 91 200 3.0 13.0 0.00 0.00 0.00 60 1013.2
20180618184703 91 193 3.0 12.0 0.00 0.00 0.00 62 1013.2
20180618184206 91 180 3.0 12.0 0.00 0.00 0.00 61 1013.3
20180618183703 91 201 5.0 12.0 0.00 0.00 0.00 60 1013.3
20180618183203 91 195 4.0 12.0 0.00 0.00 0.00 62 1013.4
20180618182704 90 183 3.0 13.0 0.00 0.00 0.00 63 1013.5
20180618182203 90 171 4.0 13.0 0.00 0.00 0.00 62 1013.6
20180618181703 90 168 2.0 12.0 0.00 0.00 0.00 63 1013.6
20180618181203 90 157 4.0 14.0 0.00 0.00 0.00 63 1013.7
20180618180703 90 180 2.0 14.0 0.00 0.00 0.00 64 1013.8
20180618180203 90 177 3.0 13.0 0.00 0.00 0.00 65 1014.0
20180618175705 89 165 2.0 12.0 0.00 0.00 0.00 64 1014.0
20180618175203 89 161 2.0 12.0 0.00 0.00 0.00 65 1014.1
20180618174703 89 182 5.0 12.0 0.00 0.00 0.00 64 1014.2
20180618174203 89 192 5.0 12.0 0.00 0.00 0.00 64 1014.2
20180618173703 89 200 3.0 12.0 0.00 0.00 0.00 66 1014.2
20180618173203 89 196 5.0 12.0 0.00 0.00 0.00 64 1014.2
20180618172702 89 169 3.0 12.0 0.00 0.00 0.00 65 1014.3
20180618172204 89 174 2.0 12.0 0.00 0.00 0.00 69 1014.3
20180618171703 89 161 1.0 12.0 0.00 0.00 0.00 68 1014.4
20180618171202 88 170 4.0 12.0 0.00 0.00 0.00 66 1014.4
20180618170702 88 173 3.0 12.0 0.00 0.00 0.00 67 1014.4
20180618170203 88 182 4.0 12.0 0.00 0.00 0.00 68 1014.4
20180618165703 88 187 1.0 12.0 0.00 0.00 0.00 70 1014.4
20180618165203 87 177 6.0 12.0 0.00 0.00 0.00 67 1014.5
20180618164703 87 183 3.0 12.0 0.00 0.00 0.00 68 1014.5
20180618164203 87 185 5.0 12.0 0.00 0.00 0.00 68 1014.5
20180618163704 87 190 3.0 12.0 0.00 0.00 0.00 68 1014.5
20180618163208 87 208 3.0 10.0 0.00 0.00 0.00 67 1014.6
20180618162703 87 176 5.0 10.0 0.00 0.00 0.00 68 1014.6
20180618162203 87 167 5.0 12.0 0.00 0.00 0.00 70 1014.6
20180618161703 87 189 6.0 14.0 0.00 0.00 0.00 68 1014.6
20180618161203 86 175 3.0 14.0 0.00 0.00 0.00 68 1014.6
20180618160703 86 195 6.0 12.0 0.00 0.00 0.00 69 1014.6
20180618155702 86 179 5.0 12.0 0.00 0.00 0.00 70 1014.6
20180618155203 86 191 6.0 12.0 0.00 0.00 0.00 68 1014.6
20180618154703 86 181 4.0 12.0 0.00 0.00 0.00 70 1014.6
20180618154202 86 198 6.0 12.0 0.00 0.00 0.00 68 1014.6
20180618153703 86 184 6.0 12.0 0.00 0.00 0.00 69 1014.6
20180618152702 85 185 6.0 13.0 0.00 0.00 0.00 68 1014.6
20180618152202 85 177 2.0 13.0 0.00 0.00 0.00 70 1014.5
20180618151702 85 202 8.0 13.0 0.00 0.00 0.00 69 1014.5
20180618151203 85 181 4.0 14.0 0.00 0.00 0.00 70 1014.5
20180618150704 85 190 5.0 14.0 0.00 0.00 0.00 71 1014.5
20180618150202 85 177 3.0 14.0 0.00 0.00 0.00 70 1014.6
20180618145703 85 191 3.0 12.0 0.00 0.00 0.00 71 1014.6
20180618145203 84 164 3.0 12.0 0.00 0.00 0.00 73 1014.6
20180618144703 84 179 3.0 12.0 0.00 0.00 0.00 73 1014.6
20180618144203 84 207 5.0 12.0 0.00 0.00 0.00 71 1014.7
20180618143703 84 192 6.0 13.0 0.00 0.00 0.00 71 1014.8
20180618143202 83 198 6.0 13.0 0.00 0.00 0.00 71 1014.7
20180618142703 83 192 7.0 18.0 0.00 0.00 0.00 71 1014.8
20180618142203 83 182 8.0 18.0 0.00 0.00 0.00 71 1014.9
20180618141703 83 190 8.0 13.0 0.00 0.00 0.00 71 1014.8
20180618141203 83 185 6.0 13.0 0.00 0.00 0.00 71 1014.9
20180618140703 83 188 5.0 13.0 0.00 0.00 0.00 72 1014.8
20180618140203 83 176 6.0 13.0 0.00 0.00 0.00 72 1014.7
20180618135703 83 182 2.0 10.0 0.00 0.00 0.00 74 1014.6
20180618135203 83 190 5.0 10.0 0.00 0.00 0.00 73 1014.6
20180618134703 82 191 4.0 9.0 0.00 0.00 0.00 73 1014.6
20180618134203 82 185 2.0 9.0 0.00 0.00 0.00 74 1014.6
20180618133703 82 183 3.0 9.0 0.00 0.00 0.00 75 1014.5
20180618133202 82 188 4.0 13.0 0.00 0.00 0.00 74 1014.4
20180618132703 81 191 6.0 13.0 0.00 0.00 0.00 74 1014.4
20180618132203 81 179 3.0 12.0 0.00 0.00 0.00 75 1014.4
20180618131703 81 188 4.0 12.0 0.00 0.00 0.00 75 1014.3
20180618131203 81 189 3.0 12.0 0.00 0.00 0.00 76 1014.3
20180618130703 80 194 5.0 12.0 0.00 0.00 0.00 76 1014.2
20180618130203 80 201 5.0 12.0 0.00 0.00 0.00 77 1014.2
20180618125703 80 196 2.0 10.0 0.00 0.00 0.00 77 1014.2
20180618125203 80 189 4.0 10.0 0.00 0.00 0.00 77 1014.2
20180618124703 79 177 2.0 10.0 0.00 0.00 0.00 78 1014.2
20180618124203 79 184 3.0 10.0 0.00 0.00 0.00 79 1014.2
20180618123703 79 181 3.0 12.0 0.00 0.00 0.00 79 1014.2
20180618123203 78 175 4.0 12.0 0.00 0.00 0.00 80 1014.2
20180618122703 78 178 4.0 12.0 0.00 0.00 0.00 81 1014.1
20180618122202 77 175 1.0 6.0 0.00 0.00 0.00 82 1014.1
20180618121703 77 176 2.0 9.0 0.00 0.00 0.00 82 1014.1
20180618121202 77 189 3.0 9.0 0.00 0.00 0.00 83 1014.1
20180618120703 76 171 1.0 6.0 0.00 0.00 0.00 83 1014.0
20180618120203 76 171 0.0 6.0 0.00 0.00 0.00 83 1013.9
20180618115703 76 172 1.0 6.0 0.00 0.00 0.00 84 1013.9
20180618115203 76 172 1.0 5.0 0.00 0.00 0.00 84 1013.8
20180618114703 75 172 1.0 5.0 0.00 0.00 0.00 84 1013.7
20180618114203 75 172 0.0 5.0 0.00 0.00 0.00 84 1013.7
20180618113703 75 172 1.0 5.0 0.00 0.00 0.00 84 1013.7
20180618113203 75 172 0.0 2.0 0.00 0.00 0.00 84 1013.7
20180618112703 75 172 0.0 1.0 0.00 0.00 0.00 84 1013.6
20180618112202 75 172 0.0 1.0 0.00 0.00 0.00 84 1013.5
20180618111703 75 172 0.0 3.0 0.00 0.00 0.00 84 1013.5
20180618111203 75 172 1.0 3.0 0.00 0.00 0.00 84 1013.5
20180618110703 75 172 0.0 6.0 0.00 0.00 0.00 84 1013.5
20180618110203 75 172 1.0 6.0 0.00 0.00 0.00 84 1013.4
20180618105703 75 172 0.0 2.0 0.00 0.00 0.00 84 1013.3
20180618105202 75 172 0.0 2.0 0.00 0.00 0.00 84 1013.3
20180618104702 75 172 0.0 3.0 0.00 0.00 0.00 84 1013.3
20180618104203 75 172 0.0 5.0 0.00 0.00 0.00 84 1013.2
20180618103704 75 172 1.0 5.0 0.00 0.00 0.00 84 1013.2
20180618103203 75 172 0.0 1.0 0.00 0.00 0.00 83 1013.2
20180618102702 75 172 0.0 1.0 0.00 0.00 0.00 83 1013.2
20180618102202 75 172 0.0 1.0 0.00 0.00 0.00 83 1013.1
20180618101702 75 172 0.0 2.0 0.00 0.00 0.00 83 1013.1
20180618101203 75 172 0.0 2.0 0.00 0.00 0.00 82 1013.1
20180618100703 75 172 0.0 2.0 0.00 0.00 0.00 82 1013.1
20180618100203 76 172 1.0 2.0 0.00 0.00 0.00 82 1013.1
20180618095702 76 172 0.0 1.0 0.00 0.00 0.00 81 1013.1
20180618095203 76 172 0.0 1.0 0.00 0.00 0.00 80 1013.0
20180618094703 76 172 0.0 1.0 0.00 0.00 0.00 80 1013.1
20180618094203 76 172 0.0 1.0 0.00 0.00 0.00 80 1013.1
20180618093703 77 172 0.0 2.0 0.00 0.00 0.00 79 1013.1
20180618093203 77 172 0.0 2.0 0.00 0.00 0.00 79 1013.0
20180618092705 77 172 0.0 2.0 0.00 0.00 0.00 78 1012.9
20180618092202 77 172 0.0 5.0 0.00 0.00 0.00 78 1012.9
20180618091703 77 172 0.0 5.0 0.00 0.00 0.00 78 1012.9
20180618091203 77 172 0.0 5.0 0.00 0.00 0.00 78 1012.8
20180618090702 77 172 0.0 3.0 0.00 0.00 0.00 78 1012.8
20180618090203 77 172 1.0 3.0 0.00 0.00 0.00 78 1012.8
20180618085703 77 172 0.0 0.0 0.00 0.00 0.00 77 1012.7
20180618085204 77 172 0.0 0.0 0.00 0.00 0.00 77 1012.7
20180618084703 78 172 0.0 0.0 0.00 0.00 0.00 77 1012.8
20180618084203 78 172 0.0 1.0 0.00 0.00 0.00 77 1012.8
20180618083703 78 172 0.0 1.0 0.00 0.00 0.00 77 1012.7
20180618083203 78 172 0.0 1.0 0.00 0.00 0.00 77 1012.7
20180618082702 78 172 0.0 1.0 0.00 0.00 0.00 77 1012.6
20180618082203 78 172 0.0 1.0 0.00 0.00 0.00 77 1012.6
20180618081703 78 172 0.0 1.0 0.00 0.00 0.00 77 1012.7
20180618081203 78 172 0.0 1.0 0.00 0.00 0.00 77 1012.7
20180618080702 78 172 0.0 1.0 0.00 0.00 0.00 76 1012.7
20180618080203 78 172 0.0 3.0 0.00 0.00 0.00 77 1012.7
20180618075703 78 172 0.0 3.0 0.00 0.00 0.00 77 1012.6
20180618075203 78 172 0.0 5.0 0.00 0.00 0.00 77 1012.5
20180618074702 78 171 0.0 5.0 0.00 0.00 0.00 77 1012.4
20180618074203 78 172 0.0 7.0 0.00 0.00 0.00 77 1012.4
20180618073702 78 171 0.0 7.0 0.00 0.00 0.00 77 1012.4
20180618073203 78 171 0.0 5.0 0.00 0.00 0.00 77 1012.5
20180618072703 78 171 1.0 5.0 0.00 0.00 0.00 77 1012.4
20180618072203 78 172 1.0 5.0 0.00 0.00 0.00 77 1012.4
20180618071702 78 172 0.0 6.0 0.00 0.00 0.00 77 1012.4
20180618071203 78 172 1.0 6.0 0.00 0.00 0.00 77 1012.4
20180618070703 78 172 0.0 5.0 0.00 0.00 0.00 77 1012.4
20180618070203 79 172 0.0 5.0 0.00 0.00 0.00 77 1012.4
20180618065704 79 172 0.0 6.0 0.00 0.00 0.00 76 1012.4
20180618065203 79 172 0.0 6.0 0.00 0.00 0.00 76 1012.4
20180618064703 79 172 1.0 5.0 0.00 0.00 0.00 76 1012.5
20180618064203 79 172 1.0 5.0 0.00 0.00 0.00 76 1012.6
20180618063702 79 172 1.0 5.0 0.00 0.00 0.00 76 1012.6
20180618063203 79 172 1.0 5.0 0.00 0.00 0.00 75 1012.6
20180618062702 79 172 1.0 3.0 0.00 0.00 0.00 75 1012.7
20180618062203 79 172 0.0 7.0 0.00 0.00 0.00 75 1012.6
20180618061702 79 172 0.0 7.0 0.00 0.00 0.00 75 1012.7
20180618061203 79 172 1.0 7.0 0.00 0.00 0.00 75 1012.7
20180618060703 79 170 0.0 5.0 0.00 0.00 0.00 75 1012.7
20180618060203 80 170 0.0 5.0 0.00 0.00 0.00 75 1012.7
20180618055703 80 170 1.0 6.0 0.00 0.00 0.00 75 1012.7
20180618055202 80 170 0.0 6.0 0.00 0.00 0.00 74 1012.6
20180618054703 80 170 1.0 7.0 0.00 0.00 0.00 74 1012.6
20180618054203 80 169 1.0 7.0 0.00 0.00 0.00 74 1012.7
20180618053703 80 169 0.0 7.0 0.00 0.00 0.00 74 1012.6
20180618053203 80 170 1.0 7.0 0.00 0.00 0.00 74 1012.5
20180618052702 80 170 1.0 5.0 0.00 0.00 0.00 74 1012.4
20180618052203 80 170 0.0 8.0 0.00 0.00 0.00 74 1012.4
20180618051703 80 171 2.0 8.0 0.00 0.00 0.00 73 1012.4
20180618051204 80 170 1.0 8.0 0.00 0.00 0.00 73 1012.3
20180618050705 80 164 2.0 7.0 0.00 0.00 0.00 73 1012.2
20180618050203 81 160 1.0 6.0 0.00 0.00 0.00 73 1012.2
20180618045703 81 160 0.0 9.0 0.00 0.00 0.00 73 1012.2
20180618045203 81 161 1.0 9.0 0.00 0.00 0.00 73 1012.1
20180618044703 81 172 1.0 7.0 0.00 0.00 0.00 73 1012.1
20180618044202 80 172 1.0 7.0 0.00 0.00 0.00 73 1012.1
20180618043702 80 173 1.0 7.0 0.00 0.00 0.00 73 1012.0
20180618043206 80 170 1.0 6.0 0.00 0.00 0.00 73 1012.0
20180618042703 80 170 1.0 5.0 0.00 0.00 0.00 73 1012.0
20180618042203 81 169 1.0 6.0 0.00 0.00 0.00 73 1012.0
20180618041703 81 169 1.0 6.0 0.00 0.00 0.00 73 1011.9
20180618041203 81 169 0.0 6.0 0.00 0.00 0.00 73 1012.1
20180618040703 81 169 0.0 5.0 0.00 0.00 0.00 73 1012.0
20180618040203 81 169 0.0 6.0 0.00 0.00 0.00 73 1012.1
20180618035703 81 169 1.0 6.0 0.00 0.00 0.00 73 1012.1
20180618035203 81 169 1.0 6.0 0.00 0.00 0.00 73 1012.0
20180618034702 81 169 1.0 3.0 0.00 0.00 0.00 73 1011.9
20180618034203 81 169 0.0 1.0 0.00 0.00 0.00 73 1011.8
20180618033703 81 169 0.0 5.0 0.00 0.00 0.00 73 1011.8
20180618033203 81 169 0.0 5.0 0.00 0.00 0.00 73 1011.8
20180618032702 81 169 1.0 5.0 0.00 0.00 0.00 73 1011.9
20180618032203 81 169 0.0 5.0 0.00 0.00 0.00 73 1011.8
20180618031703 81 169 1.0 5.0 0.00 0.00 0.00 72 1011.7
20180618031203 81 169 0.0 5.0 0.00 0.00 0.00 72 1011.8
20180618030703 82 169 0.0 1.0 0.00 0.00 0.00 72 1011.7
20180618030203 82 169 0.0 1.0 0.00 0.00 0.00 71 1011.7
20180618025703 82 169 0.0 1.0 0.00 0.00 0.00 71 1011.6
20180618025203 82 169 0.0 1.0 0.00 0.00 0.00 70 1011.5
20180618024702 82 169 0.0 3.0 0.00 0.00 0.00 70 1011.5
20180618024202 83 169 0.0 3.0 0.00 0.00 0.00 69 1011.4
20180618023702 83 169 1.0 3.0 0.00 0.00 0.00 68 1011.4
20180618023203 83 169 1.0 5.0 0.00 0.00 0.00 68 1011.4
20180618022703 83 169 0.0 6.0 0.00 0.00 0.00 68 1011.4
20180618022203 83 169 0.0 6.0 0.00 0.00 0.00 67 1011.4
20180618021703 83 169 0.0 6.0 0.00 0.00 0.00 67 1011.4
20180618021203 84 168 1.0 7.0 0.00 0.00 0.00 67 1011.5
20180618020703 84 168 0.0 7.0 0.00 0.00 0.00 67 1011.5
20180618020203 84 167 1.0 7.0 0.00 0.00 0.00 66 1011.5
20180618015703 84 169 0.0 6.0 0.00 0.00 0.00 66 1011.5
20180618015203 84 169 1.0 6.0 0.00 0.00 0.00 66 1011.5
20180618014702 85 169 1.0 6.0 0.00 0.00 0.00 66 1011.5
20180618014203 85 169 1.0 6.0 0.00 0.00 0.00 66 1011.5
20180618013703 85 169 1.0 6.0 0.00 0.00 0.00 65 1011.5
20180618013203 85 169 1.0 6.0 0.00 0.00 0.00 65 1011.5
20180618012703 86 169 1.0 7.0 0.00 0.00 0.00 64 1011.5
20180618012204 86 171 1.0 12.0 0.00 0.00 0.00 64 1011.5
20180618011703 86 186 1.0 12.0 0.00 0.00 0.00 63 1011.6
20180618011203 87 168 2.0 12.0 0.00 0.00 0.00 63 1011.5
20180618010703 87 168 2.0 9.0 0.00 0.00 0.00 63 1011.5
20180618010203 87 169 3.0 9.0 0.00 0.00 0.00 62 1011.5
20180618005703 87 166 3.0 10.0 0.00 0.00 0.00 61 1011.5
20180618005203 87 172 2.0 10.0 0.00 0.00 0.00 61 1011.5
20180618004702 88 171 3.0 12.0 0.00 0.00 0.00 61 1011.5
20180618004202 88 175 3.0 12.0 0.00 0.00 0.00 60 1011.5
20180618003702 88 179 6.0 12.0 0.00 0.00 0.00 60 1011.4
20180618003202 88 169 4.0 13.0 0.00 0.00 0.00 59 1011.4
20180618002703 89 178 2.0 20.0 0.00 0.00 0.00 59 1011.3
20180618002203 89 174 5.0 20.0 0.00 0.00 0.00 58 1011.3
20180618001703 89 171 6.0 13.0 0.00 0.00 0.00 58 1011.2
20180618001203 89 169 3.0 13.0 0.00 0.00 0.00 58 1011.3
20180618000703 89 161 4.0 16.0 0.00 0.00 0.00 58 1011.2
20180618000203 90 169 6.0 16.0 0.00 0.00 0.00 57 1011.2
20180617235703 90 177 5.0 16.0 0.00 0.00 0.00 57 1011.1
20180617235203 90 181 7.0 16.0 0.00 0.00 0.00 55 1011.1
20180617234703 91 173 2.0 12.0 0.00 0.00 0.00 57 1011.0
20180617234203 91 170 4.0 12.0 0.00 0.00 0.00 57 1011.0
20180617233703 91 176 5.0 12.0 0.00 0.00 0.00 57 1011.0
20180617233202 91 172 7.0 12.0 0.00 0.00 0.00 56 1011.0
20180617232703 91 175 3.0 12.0 0.00 0.00 0.00 57 1011.0
20180617232203 91 175 3.0 15.0 0.00 0.00 0.00 57 1011.0
20180617231705 91 176 4.0 17.0 0.00 0.00 0.00 57 1011.0
20180617231203 91 166 7.0 17.0 0.00 0.00 0.00 56 1011.0
20180617230703 91 168 4.0 16.0 0.00 0.00 0.00 57 1011.1
20180617230203 91 173 9.0 17.0 0.00 0.00 0.00 57 1011.1